Time;durP1;ratioP1;P1;durP2;ratioP2;P2;SDS_P1;SDS_P2;PMS_P1;PMS_P2;Temp;Humidity;BMP_temperature;BMP_pressure;BME280_temperature;BME280_humidity;BME280_pressure;Samples;Min_cycle;Max_cycle;Signal;HPM_P1;HPM_P2
2023/08/25 00:00:38;;;;;;;2.80;1.45;;;22.00;94.80;;;;;;4873718;28;20493;-13
2023/08/25 00:03:05;;;;;;;2.00;1.63;;;21.70;95.10;;;;;;4937237;28;20283;-13
2023/08/25 00:05:40;;;;;;;2.10;1.60;;;21.90;94.90;;;;;;4929288;28;20052;-13
2023/08/25 00:08:07;;;;;;;1.83;1.40;;;21.90;94.90;;;;;;4892250;28;20111;-13
2023/08/25 00:10:35;;;;;;;2.50;1.45;;;21.90;94.90;;;;;;4892193;28;20107;-14
2023/08/25 00:13:01;;;;;;;2.20;1.52;;;21.90;94.90;;;;;;4896535;28;20040;-13
2023/08/25 00:15:27;;;;;;;1.83;1.43;;;21.90;94.90;;;;;;4939468;28;20853;-13
2023/08/25 00:17:56;;;;;;;1.60;1.30;;;21.90;94.90;;;;;;4873106;28;20537;-13
2023/08/25 00:20:22;;;;;;;2.13;1.60;;;21.80;94.90;;;;;;4888842;28;20114;-13
2023/08/25 00:22:48;;;;;;;1.93;1.50;;;21.80;94.90;;;;;;4876928;28;20244;-13
2023/08/25 00:25:14;;;;;;;2.08;1.38;;;21.80;95.00;;;;;;4899307;28;20494;-13
2023/08/25 00:27:40;;;;;;;1.67;1.37;;;21.80;95.00;;;;;;4871014;28;20043;-13
2023/08/25 00:30:08;;;;;;;2.00;1.60;;;21.80;95.00;;;;;;4901353;29;20580;-13
2023/08/25 00:32:34;;;;;;;2.33;1.38;;;21.70;95.00;;;;;;4925745;28;20048;-13
2023/08/25 00:35:00;;;;;;;1.47;1.30;;;21.70;95.10;;;;;;4888313;28;20024;-13
2023/08/25 00:37:25;;;;;;;2.22;1.40;;;21.70;95.10;;;;;;4884078;28;20051;-15
2023/08/25 00:39:51;;;;;;;2.60;1.60;;;21.70;95.20;;;;;;4888438;28;20110;-16
2023/08/25 00:42:17;;;;;;;1.50;1.30;;;21.60;95.10;;;;;;4890888;28;20486;-16
2023/08/25 00:44:43;;;;;;;2.20;1.40;;;21.60;95.20;;;;;;4895981;28;20135;-16
2023/08/25 00:47:09;;;;;;;1.50;1.23;;;21.60;95.20;;;;;;4939557;28;20127;-15
2023/08/25 00:49:35;;;;;;;1.48;1.33;;;21.60;95.30;;;;;;4865228;28;20053;-15
2023/08/25 00:52:03;;;;;;;1.65;1.40;;;21.50;95.30;;;;;;4897468;28;20025;-15
2023/08/25 00:54:30;;;;;;;1.73;1.48;;;21.50;95.40;;;;;;4886055;28;20457;-15
2023/08/25 00:56:56;;;;;;;1.47;1.30;;;21.50;95.40;;;;;;4890479;28;20024;-15
2023/08/25 00:59:22;;;;;;;1.73;1.30;;;21.50;95.40;;;;;;4880051;28;20044;-15
2023/08/25 01:01:48;;;;;;;1.67;1.35;;;21.50;95.50;;;;;;4874273;28;22015;-15
2023/08/25 01:04:14;;;;;;;2.03;1.40;;;21.50;95.50;;;;;;4894660;28;20059;-15
2023/08/25 01:06:40;;;;;;;1.97;1.33;;;21.50;95.50;;;;;;4875847;28;20036;-15
2023/08/25 01:09:07;;;;;;;2.42;1.70;;;21.40;95.50;;;;;;4886979;28;20059;-15
2023/08/25 01:11:59;;;;;;;2.00;1.40;;;21.40;95.50;;;;;;4898364;29;20835;-15
2023/08/25 01:14:51;;;;;;;1.70;1.23;;;21.40;95.50;;;;;;4892060;28;20403;-15
2023/08/25 01:17:33;;;;;;;1.52;1.30;;;21.40;95.50;;;;;;4878884;28;20055;-15
2023/08/25 01:20:06;;;;;;;2.00;1.50;;;21.30;95.60;;;;;;4891020;28;20258;-16
2023/08/25 01:22:50;;;;;;;1.85;1.30;;;21.30;95.60;;;;;;4956441;28;20497;-15
2023/08/25 01:25:30;;;;;;;2.78;1.35;;;21.30;95.70;;;;;;4889584;28;20066;-15
2023/08/25 01:28:00;;;;;;;1.73;1.30;;;21.30;95.60;;;;;;4889169;28;20695;-15
2023/08/25 01:30:27;;;;;;;1.23;1.13;;;21.20;95.70;;;;;;4899596;28;20075;-15
2023/08/25 01:32:54;;;;;;;1.92;1.45;;;21.20;95.70;;;;;;4878387;28;20474;-16
2023/08/25 01:35:45;;;;;;;2.03;1.20;;;21.20;95.70;;;;;;4902761;28;20028;-16
2023/08/25 01:38:22;;;;;;;1.30;1.20;;;21.20;95.90;;;;;;4892189;28;20482;-16
2023/08/25 01:41:12;;;;;;;1.57;1.30;;;21.20;95.90;;;;;;4883116;28;20296;-15
2023/08/25 01:43:42;;;;;;;1.40;1.30;;;21.10;95.90;;;;;;4892704;28;20669;-15
2023/08/25 01:46:10;;;;;;;1.83;1.20;;;21.10;95.90;;;;;;4885407;28;20296;-13
2023/08/25 01:48:38;;;;;;;2.60;1.33;;;21.10;95.90;;;;;;4879766;28;20082;-13
2023/08/25 01:51:04;;;;;;;1.90;1.33;;;21.10;95.90;;;;;;4895481;28;20428;-13
2023/08/25 01:53:31;;;;;;;1.30;1.20;;;21.00;96.20;;;;;;4892145;28;20094;-14
2023/08/25 01:55:57;;;;;;;1.77;1.38;;;21.00;95.90;;;;;;4886745;28;20549;-13
2023/08/25 01:58:22;;;;;;;1.35;1.08;;;21.00;95.90;;;;;;4900605;29;20032;-13
2023/08/25 02:00:48;;;;;;;2.00;1.20;;;21.00;95.90;;;;;;4888887;28;20177;-13
2023/08/25 02:03:14;;;;;;;1.83;1.38;;;20.60;96.40;;;;;;4900859;28;20020;-12
2023/08/25 02:05:41;;;;;;;1.77;1.33;;;20.90;96.00;;;;;;4867636;28;20559;-13
2023/08/25 02:08:07;;;;;;;1.47;1.17;;;20.90;96.00;;;;;;4867334;28;20438;-13
2023/08/25 02:10:33;;;;;;;1.30;1.17;;;21.20;96.70;;;;;;4867129;28;20048;-13
2023/08/25 02:12:58;;;;;;;1.70;1.30;;;20.90;96.10;;;;;;4958120;28;20468;-14
2023/08/25 02:15:24;;;;;;;1.53;1.33;;;20.90;96.20;;;;;;4950332;28;20098;-14
2023/08/25 02:17:50;;;;;;;1.60;1.23;;;20.80;96.20;;;;;;4961787;28;20024;-13
2023/08/25 02:20:16;;;;;;;1.50;1.20;;;20.90;96.20;;;;;;4980785;28;20120;-13
2023/08/25 02:22:42;;;;;;;2.57;1.33;;;20.90;96.30;;;;;;4870550;28;20231;-14
2023/08/25 02:25:08;;;;;;;3.05;1.30;;;20.90;96.30;;;;;;4871486;28;20038;-13
2023/08/25 02:27:33;;;;;;;3.13;1.50;;;20.80;96.30;;;;;;4944261;28;20427;-14
2023/08/25 02:29:59;;;;;;;1.90;1.50;;;20.80;96.40;;;;;;4899745;28;20024;-13
2023/08/25 02:32:25;;;;;;;3.75;1.50;;;20.80;96.40;;;;;;4888652;28;20028;-13
2023/08/25 02:34:51;;;;;;;2.20;1.30;;;20.80;96.40;;;;;;4944326;28;20434;-13
2023/08/25 02:37:16;;;;;;;1.83;1.40;;;20.80;96.40;;;;;;4881788;28;20025;-13
2023/08/25 02:39:42;;;;;;;1.40;1.27;;;20.70;96.40;;;;;;4943214;28;20238;-13
2023/08/25 02:42:08;;;;;;;2.80;1.50;;;20.70;96.50;;;;;;4886044;28;20532;-13
2023/08/25 02:44:34;;;;;;;1.80;1.30;;;20.70;96.50;;;;;;4894299;29;20036;-13
2023/08/25 02:46:59;;;;;;;2.65;1.48;;;20.70;96.50;;;;;;4873805;28;20457;-13
2023/08/25 02:49:25;;;;;;;2.40;1.30;;;20.70;96.60;;;;;;4963130;28;20095;-14
2023/08/25 02:51:51;;;;;;;2.20;1.40;;;22.50;97.70;;;;;;4874406;28;20779;-13
2023/08/25 02:54:17;;;;;;;2.10;1.50;;;20.60;96.70;;;;;;4892504;28;20094;-13
2023/08/25 02:56:42;;;;;;;1.70;1.30;;;20.70;96.80;;;;;;4888793;28;20574;-16
2023/08/25 02:59:08;;;;;;;2.08;1.50;;;20.60;96.80;;;;;;4883015;28;20640;-17
2023/08/25 03:01:36;;;;;;;2.10;1.37;;;20.60;96.80;;;;;;4884530;28;20778;-16
2023/08/25 03:04:02;;;;;;;2.78;1.30;;;20.60;96.80;;;;;;4887674;28;20055;-15
2023/08/25 03:06:27;;;;;;;1.83;1.50;;;20.60;96.80;;;;;;4956259;28;20428;-15
2023/08/25 03:08:53;;;;;;;1.43;1.23;;;20.60;96.70;;;;;;4873064;28;20119;-15
2023/08/25 03:11:19;;;;;;;2.45;1.40;;;20.60;96.80;;;;;;4952359;28;20301;-16
2023/08/25 03:13:44;;;;;;;1.40;1.30;;;20.60;96.80;;;;;;4885961;28;20101;-15
2023/08/25 03:16:41;;;;;;;1.33;1.15;;;20.50;96.80;;;;;;4895633;28;20305;-15
2023/08/25 03:19:06;;;;;;;1.30;1.20;;;20.50;96.70;;;;;;4884818;28;20237;-16
2023/08/25 03:21:32;;;;;;;1.13;1.00;;;20.50;96.80;;;;;;4899021;29;20024;-16
2023/08/25 03:23:58;;;;;;;1.90;1.40;;;20.50;96.80;;;;;;4929555;28;20032;-15
2023/08/25 03:26:24;;;;;;;1.23;1.13;;;20.50;96.80;;;;;;4954734;28;20032;-16
2023/08/25 03:28:50;;;;;;;1.60;1.27;;;20.50;96.80;;;;;;4962877;28;20640;-15
2023/08/25 03:31:16;;;;;;;1.77;1.48;;;20.50;96.80;;;;;;4952989;28;20036;-15
2023/08/25 03:33:42;;;;;;;1.37;1.20;;;20.40;96.90;;;;;;4970363;28;20036;-15
2023/08/25 03:36:07;;;;;;;1.80;1.17;;;20.50;96.90;;;;;;4895107;28;20024;-16
2023/08/25 03:38:33;;;;;;;1.67;1.30;;;20.40;96.90;;;;;;4940326;28;20027;-16
2023/08/25 03:41:00;;;;;;;1.50;1.25;;;20.40;96.90;;;;;;4847059;28;20104;-15
2023/08/25 03:43:26;;;;;;;1.40;1.30;;;20.40;97.00;;;;;;4896599;28;20103;-16
2023/08/25 03:45:51;;;;;;;2.73;1.17;;;20.40;97.00;;;;;;4883730;28;20044;-15
2023/08/25 03:48:17;;;;;;;1.40;1.27;;;20.40;97.10;;;;;;4896547;28;20138;-15
2023/08/25 03:50:47;;;;;;;1.93;1.30;;;20.40;97.10;;;;;;4861271;28;20555;-16
2023/08/25 03:53:13;;;;;;;2.17;1.20;;;20.40;97.20;;;;;;4929477;28;20801;-15
2023/08/25 03:55:39;;;;;;;1.55;1.30;;;20.40;97.30;;;;;;4878145;28;20038;-16
2023/08/25 03:58:05;;;;;;;1.40;1.13;;;20.40;97.40;;;;;;4885246;28;20036;-16
2023/08/25 04:00:31;;;;;;;1.52;1.15;;;20.40;97.50;;;;;;4884496;28;20425;-16
2023/08/25 04:02:57;;;;;;;1.70;1.17;;;20.50;97.60;;;;;;4890274;28;20114;-15
2023/08/25 04:05:22;;;;;;;1.37;1.10;;;20.40;97.60;;;;;;4887210;28;21323;-16
2023/08/25 04:07:49;;;;;;;1.30;1.03;;;20.40;97.70;;;;;;4898941;28;20296;-15
2023/08/25 04:10:15;;;;;;;2.15;1.23;;;20.40;97.70;;;;;;4873662;28;20218;-16
2023/08/25 04:12:41;;;;;;;1.77;1.40;;;20.50;97.80;;;;;;4888972;28;20028;-16
2023/08/25 04:15:07;;;;;;;1.23;1.00;;;20.50;97.80;;;;;;4879581;28;22191;-16
2023/08/25 04:17:34;;;;;;;1.80;1.10;;;20.50;97.80;;;;;;4898632;28;20035;-16
2023/08/25 04:20:01;;;;;;;1.35;1.20;;;20.50;97.80;;;;;;4896240;29;20028;-15
2023/08/25 04:22:27;;;;;;;1.20;1.10;;;20.50;97.80;;;;;;4955399;28;20039;-16
2023/08/25 04:24:53;;;;;;;1.70;1.17;;;20.50;97.80;;;;;;4885867;28;20032;-15
2023/08/25 04:27:18;;;;;;;1.37;1.20;;;20.50;97.90;;;;;;4885122;28;20217;-16
2023/08/25 04:29:44;;;;;;;1.27;1.17;;;20.60;98.00;;;;;;4955986;28;20037;-15
2023/08/25 04:32:10;;;;;;;1.73;1.17;;;20.60;98.10;;;;;;4882762;28;20318;-16
2023/08/25 04:34:36;;;;;;;3.15;1.10;;;20.60;98.10;;;;;;4901826;28;20076;-16
2023/08/25 04:37:01;;;;;;;2.07;1.10;;;20.60;98.10;;;;;;4949298;28;20107;-15
2023/08/25 04:39:27;;;;;;;1.92;1.15;;;20.60;98.20;;;;;;4954666;28;20082;-16
2023/08/25 04:41:54;;;;;;;1.40;1.30;;;20.60;98.50;;;;;;4938506;28;20048;-15
2023/08/25 04:44:20;;;;;;;1.30;1.10;;;20.70;98.80;;;;;;4890682;28;23517;-16
2023/08/25 04:46:46;;;;;;;1.42;1.10;;;20.70;98.30;;;;;;4982030;28;20032;-15
2023/08/25 04:49:11;;;;;;;1.83;1.10;;;20.70;98.40;;;;;;4969422;28;20311;-16
2023/08/25 04:51:37;;;;;;;2.37;1.20;;;20.70;98.40;;;;;;4903199;28;20028;-16
2023/08/25 04:54:03;;;;;;;1.27;1.10;;;20.70;98.50;;;;;;4889542;28;20115;-15
2023/08/25 04:56:29;;;;;;;2.00;1.30;;;20.80;98.60;;;;;;4868434;28;20032;-16
2023/08/25 04:58:54;;;;;;;1.60;1.30;;;20.80;98.60;;;;;;4900312;29;20505;-15
2023/08/25 05:01:20;;;;;;;2.50;0.90;;;20.80;98.70;;;;;;4960827;28;20021;-16
2023/08/25 05:03:48;;;;;;;1.85;1.10;;;20.80;98.70;;;;;;4935117;28;20493;-16
2023/08/25 05:06:14;;;;;;;1.30;1.10;;;20.90;98.80;;;;;;4898497;29;20027;-16
2023/08/25 05:08:40;;;;;;;1.90;1.33;;;20.90;98.90;;;;;;4957851;28;20117;-16
2023/08/25 05:11:06;;;;;;;2.25;1.70;;;20.90;99.00;;;;;;4902263;28;20036;-16
2023/08/25 05:13:31;;;;;;;1.90;1.50;;;20.90;99.00;;;;;;4879026;28;20712;-16
2023/08/25 05:15:57;;;;;;;2.20;1.63;;;21.00;99.10;;;;;;4972784;28;20032;-16
2023/08/25 05:18:24;;;;;;;2.10;1.27;;;21.00;99.20;;;;;;4884311;28;20024;-16
2023/08/25 05:20:50;;;;;;;2.13;1.60;;;21.00;99.20;;;;;;4891017;28;20312;-14
2023/08/25 05:23:16;;;;;;;2.25;1.70;;;21.10;99.30;;;;;;4890140;28;20066;-15
2023/08/25 05:25:42;;;;;;;2.42;1.60;;;21.10;99.40;;;;;;4892287;28;20050;-14
2023/08/25 05:28:07;;;;;;;2.03;1.63;;;21.10;99.40;;;;;;4899863;28;20043;-14
2023/08/25 05:30:33;;;;;;;2.30;1.70;;;21.10;99.40;;;;;;4897009;28;20310;-13
2023/08/25 05:32:59;;;;;;;2.53;1.83;;;21.20;99.40;;;;;;4887024;28;20682;-14
2023/08/25 05:35:24;;;;;;;4.18;2.10;;;21.10;99.60;;;;;;4882863;28;20241;-15
2023/08/25 05:37:50;;;;;;;2.83;1.67;;;21.20;99.20;;;;;;4899526;28;20208;-14
2023/08/25 05:40:16;;;;;;;2.60;1.80;;;21.20;99.20;;;;;;4862447;28;20095;-16
2023/08/25 05:42:42;;;;;;;2.07;1.57;;;21.20;99.20;;;;;;4964888;28;20032;-15
2023/08/25 05:45:08;;;;;;;3.05;1.67;;;21.20;99.20;;;;;;4876322;28;20090;-17
2023/08/25 05:47:34;;;;;;;2.40;1.80;;;21.20;99.20;;;;;;4890428;28;20033;-17
2023/08/25 05:50:00;;;;;;;3.27;1.50;;;21.10;99.20;;;;;;4871546;28;20783;-17
2023/08/25 05:52:25;;;;;;;2.10;1.52;;;21.10;99.30;;;;;;4894608;29;20600;-14
2023/08/25 05:54:51;;;;;;;2.93;1.70;;;21.10;99.40;;;;;;4891981;28;20028;-13
2023/08/25 05:57:17;;;;;;;2.42;1.75;;;21.10;99.40;;;;;;4873173;28;20048;-13
2023/08/25 05:59:42;;;;;;;2.47;1.83;;;21.00;99.40;;;;;;4941956;28;20499;-13
2023/08/25 06:02:08;;;;;;;2.35;1.70;;;21.00;99.50;;;;;;4957311;28;20842;-13
2023/08/25 06:04:34;;;;;;;2.10;1.50;;;20.70;99.90;;;;;;4959927;28;20551;-13
2023/08/25 06:06:59;;;;;;;2.33;1.77;;;20.90;99.60;;;;;;4885971;28;20423;-13
2023/08/25 06:09:26;;;;;;;3.20;1.90;;;20.90;99.70;;;;;;4895863;28;20214;-13
2023/08/25 06:11:53;;;;;;;2.67;1.90;;;20.90;99.70;;;;;;4864036;28;20028;-13
2023/08/25 06:14:18;;;;;;;2.47;1.90;;;20.90;99.80;;;;;;4959470;28;20675;-13
2023/08/25 06:16:44;;;;;;;4.05;2.22;;;20.90;99.80;;;;;;4879452;28;20035;-14
2023/08/25 06:19:10;;;;;;;3.43;2.00;;;20.90;99.80;;;;;;4889481;28;20040;-13
2023/08/25 06:21:36;;;;;;;2.88;2.03;;;20.80;99.80;;;;;;4948960;28;21720;-12
2023/08/25 06:24:03;;;;;;;2.97;2.00;;;20.80;99.90;;;;;;4897061;28;20032;-13
2023/08/25 06:26:29;;;;;;;2.38;1.70;;;20.80;99.90;;;;;;4877875;28;20164;-13
2023/08/25 06:28:56;;;;;;;3.55;2.10;;;20.70;99.90;;;;;;4904074;28;20035;-17
2023/08/25 06:31:22;;;;;;;2.83;2.05;;;20.70;99.90;;;;;;4874234;28;20040;-16
2023/08/25 06:33:48;;;;;;;3.87;1.93;;;20.70;99.90;;;;;;4875013;28;20043;-15
2023/08/25 06:36:14;;;;;;;3.50;2.15;;;20.70;99.90;;;;;;4884363;28;20493;-16
2023/08/25 06:38:39;;;;;;;2.90;1.90;;;20.70;99.90;;;;;;4941495;28;20032;-15
2023/08/25 06:41:05;;;;;;;3.57;2.10;;;20.70;99.90;;;;;;4889750;28;20670;-17
2023/08/25 06:43:31;;;;;;;3.65;2.08;;;20.80;99.90;;;;;;4886883;28;20429;-15
2023/08/25 06:45:57;;;;;;;3.23;2.07;;;20.70;99.90;;;;;;4894221;28;20040;-15
2023/08/25 06:48:23;;;;;;;3.20;2.10;;;20.80;99.90;;;;;;4865176;28;20033;-15
2023/08/25 06:50:49;;;;;;;3.92;2.08;;;20.80;99.90;;;;;;4898807;28;20557;-16
2023/08/25 06:53:16;;;;;;;2.92;1.90;;;20.80;99.90;;;;;;4945930;28;20032;-15
2023/08/25 06:55:42;;;;;;;2.43;1.87;;;20.80;99.90;;;;;;4889570;28;20157;-17
2023/08/25 06:58:08;;;;;;;3.15;2.13;;;21.80;99.90;;;;;;4878424;28;20028;-16
2023/08/25 07:00:34;;;;;;;3.03;2.13;;;21.00;99.90;;;;;;4895316;28;20024;-16
2023/08/25 07:03:01;;;;;;;3.40;2.17;;;21.00;99.90;;;;;;4843942;28;20024;-17
2023/08/25 07:05:27;;;;;;;3.35;2.17;;;21.10;99.90;;;;;;4887708;28;20068;-15
2023/08/25 07:07:53;;;;;;;3.38;2.05;;;21.10;99.90;;;;;;4873825;28;20040;-16
2023/08/25 07:10:19;;;;;;;3.27;2.27;;;21.20;99.90;;;;;;4956098;28;20788;-15
2023/08/25 07:12:45;;;;;;;4.53;2.67;;;21.30;99.90;;;;;;4896499;28;20915;-15
2023/08/25 07:15:10;;;;;;;4.30;2.40;;;21.40;99.90;;;;;;4943127;28;20028;-16
2023/08/25 07:17:36;;;;;;;4.07;2.47;;;21.40;99.90;;;;;;4873487;28;20280;-16
2023/08/25 07:20:05;;;;;;;3.55;2.35;;;21.50;99.90;;;;;;4890430;28;20103;-16
2023/08/25 07:22:32;;;;;;;3.95;2.50;;;21.50;99.90;;;;;;4883946;28;20123;-15
2023/08/25 07:24:58;;;;;;;3.25;2.25;;;21.60;99.90;;;;;;4879676;28;20123;-15
2023/08/25 07:27:24;;;;;;;4.00;2.37;;;21.60;99.90;;;;;;4883478;28;20544;-15
2023/08/25 07:29:53;;;;;;;3.53;2.40;;;21.60;99.90;;;;;;4888674;28;20361;-16
2023/08/25 07:32:19;;;;;;;4.80;2.78;;;21.60;99.90;;;;;;4961094;28;20107;-15
2023/08/25 07:34:45;;;;;;;3.63;2.58;;;21.60;99.90;;;;;;4936068;28;20265;-15
2023/08/25 07:37:11;;;;;;;5.00;2.23;;;21.60;99.90;;;;;;4962067;28;20044;-14
2023/08/25 07:39:38;;;;;;;3.50;2.42;;;21.60;99.90;;;;;;4876501;28;20814;-14
2023/08/25 07:42:05;;;;;;;4.70;2.67;;;21.60;99.90;;;;;;4957561;28;20885;-14
2023/08/25 07:44:30;;;;;;;4.82;2.50;;;21.60;99.90;;;;;;4949898;28;20284;-14
2023/08/25 07:46:56;;;;;;;3.67;2.40;;;21.60;99.90;;;;;;4948332;28;20028;-16
2023/08/25 07:49:22;;;;;;;4.33;2.43;;;21.60;99.90;;;;;;4885697;28;20078;-16
2023/08/25 07:51:48;;;;;;;5.33;2.67;;;21.70;99.90;;;;;;4887619;28;20360;-19
2023/08/25 07:54:13;;;;;;;3.53;2.50;;;21.60;99.90;;;;;;4883845;28;20264;-21
2023/08/25 07:56:39;;;;;;;4.70;2.42;;;21.60;99.90;;;;;;4925910;28;20070;-17
2023/08/25 07:59:05;;;;;;;3.13;2.30;;;21.60;99.90;;;;;;4899654;29;20743;-17
2023/08/25 08:01:31;;;;;;;4.60;2.42;;;21.50;99.90;;;;;;4879829;28;20033;-16
2023/08/25 08:03:57;;;;;;;3.38;2.10;;;21.50;99.90;;;;;;4874601;28;20582;-17
2023/08/25 08:06:23;;;;;;;2.42;1.80;;;21.50;99.90;;;;;;4877448;28;20063;-18
2023/08/25 08:08:48;;;;;;;2.90;1.80;;;21.50;99.90;;;;;;4961562;28;20256;-16
2023/08/25 08:11:14;;;;;;;2.25;1.60;;;21.40;99.90;;;;;;4879227;28;20111;-17
2023/08/25 08:13:40;;;;;;;3.07;2.03;;;21.40;99.90;;;;;;4959339;28;20723;-16
2023/08/25 08:16:06;;;;;;;2.80;1.95;;;21.40;99.90;;;;;;4951896;28;20281;-16
2023/08/25 08:18:32;;;;;;;3.10;1.73;;;21.40;99.90;;;;;;4950256;28;20032;-17
2023/08/25 08:20:57;;;;;;;2.90;2.22;;;21.40;99.90;;;;;;4867276;28;20414;-15
2023/08/25 08:23:23;;;;;;;2.40;1.90;;;21.40;99.90;;;;;;4895395;29;20107;-17
2023/08/25 08:25:49;;;;;;;2.43;1.97;;;21.40;99.90;;;;;;4882635;28;20398;-17
2023/08/25 08:28:15;;;;;;;2.95;2.03;;;21.40;99.90;;;;;;4891752;28;20040;-15
2023/08/25 08:30:43;;;;;;;3.35;2.03;;;21.40;99.90;;;;;;4895837;28;20230;-16
2023/08/25 08:33:09;;;;;;;3.10;2.10;;;21.50;99.90;;;;;;4943759;28;20552;-16
2023/08/25 08:35:35;;;;;;;3.00;1.98;;;21.50;99.90;;;;;;4960692;28;20472;-16
2023/08/25 08:38:01;;;;;;;2.78;2.00;;;21.50;99.90;;;;;;4877102;28;20028;-16
2023/08/25 08:40:31;;;;;;;2.63;1.97;;;21.60;99.90;;;;;;4880075;28;20024;-17
2023/08/25 08:43:04;;;;;;;3.00;2.03;;;21.60;99.90;;;;;;4933347;28;20099;-15
2023/08/25 08:45:39;;;;;;;3.20;2.20;;;21.60;99.90;;;;;;4881320;28;20162;-17
2023/08/25 08:48:06;;;;;;;3.03;2.33;;;21.70;99.90;;;;;;4881558;28;20313;-16
2023/08/25 08:50:34;;;;;;;3.83;2.13;;;21.70;99.90;;;;;;4894825;29;20020;-16
2023/08/25 08:53:00;;;;;;;3.50;2.43;;;21.70;99.90;;;;;;4875210;28;20194;-15
2023/08/25 08:55:27;;;;;;;3.22;2.28;;;21.70;99.90;;;;;;4894725;29;20029;-18
2023/08/25 08:57:53;;;;;;;3.33;2.45;;;21.80;99.90;;;;;;4884511;28;20103;-16
2023/08/25 09:00:20;;;;;;;4.28;2.80;;;21.80;99.90;;;;;;4889964;28;20123;-17
2023/08/25 09:02:50;;;;;;;3.75;2.60;;;22.00;99.90;;;;;;4886015;28;20083;-16
2023/08/25 09:05:21;;;;;;;4.10;2.60;;;22.10;99.90;;;;;;4946162;28;20110;-16
2023/08/25 09:07:53;;;;;;;4.15;2.92;;;22.20;99.90;;;;;;4872609;28;20232;-16
2023/08/25 09:10:18;;;;;;;4.93;3.10;;;22.30;99.90;;;;;;4943287;28;20520;-17
2023/08/25 09:12:44;;;;;;;5.75;3.15;;;22.50;99.90;;;;;;4894805;29;20293;-16
2023/08/25 09:15:24;;;;;;;5.37;3.13;;;22.70;99.90;;;;;;4868743;28;20028;-17
2023/08/25 09:18:03;;;;;;;5.82;3.40;;;22.70;99.90;;;;;;4891513;28;21181;-16
2023/08/25 09:20:33;;;;;;;5.45;3.22;;;22.80;99.90;;;;;;4889184;28;20062;-17
2023/08/25 09:23:00;;;;;;;5.15;3.22;;;22.90;99.90;;;;;;4895706;28;20028;-16
2023/08/25 09:25:26;;;;;;;5.43;3.13;;;22.90;99.90;;;;;;4877073;28;21592;-18
2023/08/25 09:27:59;;;;;;;6.07;3.17;;;23.00;99.90;;;;;;4885617;28;20039;-17
2023/08/25 09:30:37;;;;;;;6.00;3.42;;;23.00;99.90;;;;;;4960898;28;20028;-18
2023/08/25 09:33:04;;;;;;;7.65;4.07;;;23.00;99.90;;;;;;4879922;28;20321;-16
2023/08/25 09:35:31;;;;;;;7.05;3.95;;;23.00;99.90;;;;;;4890455;28;20436;-18
2023/08/25 09:37:57;;;;;;;7.53;3.90;;;23.00;99.90;;;;;;4899026;28;20089;-16
2023/08/25 09:40:23;;;;;;;6.93;4.17;;;23.10;99.90;;;;;;4876944;28;20052;-18
2023/08/25 09:42:48;;;;;;;7.70;4.40;;;23.10;99.90;;;;;;4887205;28;20031;-17
2023/08/25 09:45:14;;;;;;;8.18;4.35;;;23.20;99.90;;;;;;4886290;28;20064;-18
2023/08/25 09:47:41;;;;;;;8.90;4.80;;;23.20;99.90;;;;;;4887061;28;22982;-16
2023/08/25 09:50:12;;;;;;;8.43;4.95;;;23.30;99.90;;;;;;4898158;28;20473;-18
2023/08/25 09:52:40;;;;;;;8.60;4.68;;;23.30;99.90;;;;;;4889397;28;20274;-18
2023/08/25 09:55:06;;;;;;;9.35;4.97;;;23.30;99.90;;;;;;4934008;28;20040;-17
2023/08/25 09:57:33;;;;;;;9.52;5.38;;;23.30;99.90;;;;;;4894147;28;20348;-17
2023/08/25 10:00:00;;;;;;;9.10;5.20;;;23.40;99.90;;;;;;4899209;28;20422;-16
2023/08/25 10:02:26;;;;;;;10.40;5.28;;;23.30;99.90;;;;;;4881629;28;20499;-18
2023/08/25 10:04:54;;;;;;;8.48;5.22;;;23.30;99.90;;;;;;4889797;28;20064;-16
2023/08/25 10:07:21;;;;;;;10.32;5.22;;;23.30;99.90;;;;;;4948130;28;20036;-19
2023/08/25 10:09:48;;;;;;;9.75;5.60;;;23.20;99.90;;;;;;4872002;28;20037;-16
2023/08/25 10:12:16;;;;;;;10.43;6.03;;;23.10;99.90;;;;;;4966219;28;20126;-17
2023/08/25 10:14:44;;;;;;;10.95;6.15;;;23.10;99.90;;;;;;4895979;29;20047;-16
2023/08/25 10:17:14;;;;;;;11.57;5.90;;;23.10;99.90;;;;;;4882459;28;20028;-18
2023/08/25 10:19:42;;;;;;;11.32;6.07;;;23.00;99.90;;;;;;4950995;28;20425;-17
2023/08/25 10:22:10;;;;;;;10.23;5.40;;;23.00;99.90;;;;;;4893637;28;20017;-18
2023/08/25 10:24:38;;;;;;;10.80;5.90;;;23.00;99.90;;;;;;4895360;28;20028;-16
2023/08/25 10:27:04;;;;;;;11.60;6.13;;;23.00;99.90;;;;;;4935273;28;20024;-19
2023/08/25 10:29:32;;;;;;;12.48;6.32;;;23.00;99.90;;;;;;4899124;29;20048;-17
2023/08/25 10:32:02;;;;;;;12.60;6.65;;;23.00;99.90;;;;;;4900606;29;20025;-18
2023/08/25 10:34:42;;;;;;;13.65;6.65;;;23.00;99.90;;;;;;4885391;28;20277;-17
2023/08/25 10:37:30;;;;;;;12.20;6.70;;;23.00;99.90;;;;;;4891193;28;20102;-17
2023/08/25 10:40:06;;;;;;;14.13;6.75;;;23.00;99.90;;;;;;4895314;28;20078;-20
2023/08/25 10:42:34;;;;;;;13.20;6.88;;;23.00;99.90;;;;;;4885127;28;20210;-16
2023/08/25 10:45:07;;;;;;;13.02;6.95;;;23.00;99.90;;;;;;4899693;28;20067;-18
2023/08/25 10:47:41;;;;;;;13.68;7.38;;;23.00;99.90;;;;;;4884014;28;20029;-17
2023/08/25 10:50:07;;;;;;;14.13;7.00;;;23.00;99.90;;;;;;4924082;28;20055;-18
2023/08/25 10:52:33;;;;;;;14.00;7.25;;;23.00;99.90;;;;;;4889209;28;20055;-17
2023/08/25 10:55:22;;;;;;;14.20;6.85;;;23.00;99.90;;;;;;4879814;28;20044;-16
2023/08/25 10:57:51;;;;;;;12.80;6.63;;;23.00;99.90;;;;;;4873935;28;20041;-15
2023/08/25 11:00:28;;;;;;;13.13;6.38;;;23.00;99.90;;;;;;4964126;28;20228;-17
2023/08/25 11:02:55;;;;;;;13.70;7.03;;;22.90;99.90;;;;;;4957310;28;20053;-20
2023/08/25 11:05:42;;;;;;;13.07;6.43;;;22.90;99.90;;;;;;4880958;28;20281;-19
2023/08/25 11:08:26;;;;;;;13.85;7.00;;;22.90;99.90;;;;;;4945345;28;20029;-18
2023/08/25 11:11:12;;;;;;;13.20;6.72;;;22.90;99.90;;;;;;4971641;28;20086;-18
2023/08/25 11:13:42;;;;;;;14.75;6.95;;;22.80;99.90;;;;;;4874550;28;20044;-17
2023/08/25 11:16:11;;;;;;;15.03;6.87;;;22.90;99.90;;;;;;4884380;28;20063;-18
2023/08/25 11:18:44;;;;;;;15.18;7.18;;;22.80;99.90;;;;;;4946636;28;20028;-17
2023/08/25 11:21:11;;;;;;;14.50;7.35;;;22.80;99.90;;;;;;4893468;29;20667;-19
2023/08/25 11:23:41;;;;;;;17.20;7.85;;;22.90;99.90;;;;;;4869768;28;20024;-17
2023/08/25 11:26:08;;;;;;;15.32;7.82;;;22.90;99.90;;;;;;4898939;28;20028;-20
2023/08/25 11:28:34;;;;;;;16.63;8.10;;;22.90;99.90;;;;;;4873245;28;20505;-16
2023/08/25 11:31:01;;;;;;;17.70;8.82;;;22.90;99.90;;;;;;4885710;28;20024;-18
2023/08/25 11:33:27;;;;;;;17.10;7.90;;;22.90;99.90;;;;;;4894359;29;20024;-17
2023/08/25 11:35:53;;;;;;;18.75;8.07;;;23.00;99.90;;;;;;4883014;28;20047;-20
2023/08/25 11:38:20;;;;;;;17.87;8.73;;;23.00;99.90;;;;;;4897410;28;23322;-20
2023/08/25 11:40:46;;;;;;;18.77;8.50;;;23.00;99.90;;;;;;4883929;28;20568;-19
2023/08/25 11:43:12;;;;;;;19.42;9.13;;;23.00;99.90;;;;;;4910738;28;20604;-20
2023/08/25 11:45:39;;;;;;;19.67;8.82;;;23.10;99.90;;;;;;4887208;28;20574;-20
2023/08/25 11:48:05;;;;;;;23.48;9.57;;;23.10;99.90;;;;;;4883413;28;20553;-18
2023/08/25 11:50:31;;;;;;;23.33;9.90;;;23.20;99.90;;;;;;4880730;28;20565;-19
2023/08/25 11:52:57;;;;;;;22.63;10.13;;;23.40;99.90;;;;;;4939427;28;20158;-17
2023/08/25 11:55:32;;;;;;;23.25;9.80;;;23.50;99.90;;;;;;4945204;28;20133;-17
2023/08/25 11:57:58;;;;;;;24.07;9.67;;;23.60;99.90;;;;;;4886689;28;20695;-18
2023/08/25 12:00:23;;;;;;;22.90;9.57;;;23.80;99.90;;;;;;4928944;28;20020;-19
2023/08/25 12:02:58;;;;;;;23.10;9.90;;;23.90;99.90;;;;;;4884007;28;20028;-17
2023/08/25 12:05:28;;;;;;;22.55;9.52;;;24.20;99.90;;;;;;4939447;28;20176;-20
2023/08/25 12:08:00;;;;;;;21.60;10.27;;;24.60;99.90;;;;;;4894687;29;20460;-20
2023/08/25 12:10:26;;;;;;;20.45;10.50;;;25.00;99.90;;;;;;4884875;28;21208;-20
2023/08/25 12:12:53;;;;;;;18.77;10.33;;;25.40;99.90;;;;;;4940969;28;20055;-20
2023/08/25 12:15:19;;;;;;;23.05;11.82;;;25.80;99.90;;;;;;4927695;28;20798;-21
2023/08/25 12:17:47;;;;;;;17.80;10.77;;;26.10;99.90;;;;;;4963854;28;20289;-21
2023/08/25 12:20:18;;;;;;;16.00;9.87;;;26.30;99.90;;;;;;4959402;28;20491;-20
2023/08/25 12:23:00;;;;;;;16.65;9.38;;;26.30;99.90;;;;;;4941909;28;20316;-20
2023/08/25 12:25:30;;;;;;;15.35;9.50;;;26.40;99.90;;;;;;4954800;28;20595;-22
2023/08/25 12:27:57;;;;;;;14.45;8.85;;;26.40;99.90;;;;;;4935781;28;20317;-21
2023/08/25 12:30:25;;;;;;;17.77;10.60;;;26.30;99.90;;;;;;4873235;28;20546;-20
2023/08/25 12:32:51;;;;;;;15.70;9.40;;;26.20;99.90;;;;;;4949058;28;20051;-22
2023/08/25 12:35:19;;;;;;;15.27;9.40;;;26.10;99.90;;;;;;4896425;29;20028;-21
2023/08/25 12:37:44;;;;;;;16.38;9.07;;;26.00;99.90;;;;;;4942364;28;20028;-22
2023/08/25 12:40:10;;;;;;;15.73;8.60;;;25.80;99.90;;;;;;4897318;29;20568;-23
2023/08/25 12:42:36;;;;;;;16.63;9.23;;;25.70;99.90;;;;;;4883688;28;20032;-24
2023/08/25 12:45:03;;;;;;;15.90;9.48;;;25.70;99.90;;;;;;4967533;28;20047;-22
2023/08/25 12:47:29;;;;;;;16.17;9.77;;;25.70;99.90;;;;;;4911127;28;20055;-24